KCMH/CMH METAR and TAF weather

Enter ICAO airport designator
Station Type Date Time Source
KCMH METAR 2021/09/16 20:51 UTC NOAA

KCMH 162051Z 09003KT 10SM SCT043 28/17 A3007 RMK AO2 SLP179 T02780172 56015 $


Station Type Date Time Source
KCMH Decoded METAR 2021/09/16 20:51 UTC NOAA

PORT COLUMBUS INTERNATIONAL AIRPORT, OH, United States (KCMH) 40-00N 82-53W 247M
Sep 16, 2021 - 04:51 PM EDT / 2021.09.16 2051 UTC
Wind: from the E (090 degrees) at 3 MPH (3 KT):0
Visibility: 10 mile(s):0
Sky conditions: partly cloudy
Temperature: 82.0 F (27.8 C)
Dew Point: 63.0 F (17.2 C)
Relative Humidity: 52%
Pressure (altimeter): 30.07 in. Hg (1018 hPa)
Pressure tendency: 0.04 inches (1.5 hPa) lower than three hours ago
ob: KCMH 162051Z 09003KT 10SM SCT043 28/17 A3007 RMK AO2 SLP179 T02780172 56015
cycle: 21

Station Type Date Time Source
KCMH TAF 2021/09/16 18:36 UTC NOAA

TAF KCMH 161733Z 1618/1718 09004KT P6SM FEW023 FEW250
FM170000 00000KT P6SM FEW250
FM171400 19006KT P6SM FEW120

Example: see airport list